Time;durP1;ratioP1;P1;durP2;ratioP2;P2;SDS_P1;SDS_P2;PMS_P1;PMS_P2;Temp;Humidity;BMP_temperature;BMP_pressure;BME280_temperature;BME280_humidity;BME280_pressure;Samples;Min_cycle;Max_cycle;Signal;HPM_P1;HPM_P2
2022/07/29 04:00:30;;;;;;;9.07;7.78;;;16.60;99.90;;;;;;5913230;23;20041;-74
2022/07/29 04:02:57;;;;;;;11.40;7.47;;;16.60;99.90;;;;;;4975847;28;20504;-72
2022/07/29 04:05:22;;;;;;;8.40;7.60;;;16.60;99.90;;;;;;4975069;28;20074;-72
2022/07/29 04:07:48;;;;;;;10.23;8.23;;;16.60;99.90;;;;;;4975473;28;20027;-73
2022/07/29 04:10:17;;;;;;;11.65;7.70;;;16.50;99.90;;;;;;4975853;28;20501;-72
2022/07/29 04:12:43;;;;;;;10.13;7.43;;;16.50;99.90;;;;;;4975710;28;20039;-71
2022/07/29 04:15:09;;;;;;;9.80;8.10;;;16.60;99.90;;;;;;5000145;23;20037;-75
2022/07/29 04:17:34;;;;;;;9.13;7.50;;;16.60;99.90;;;;;;4972118;28;20106;-75
2022/07/29 04:20:00;;;;;;;9.50;8.20;;;16.60;99.90;;;;;;4975871;28;20090;-77
2022/07/29 04:22:25;;;;;;;10.48;8.27;;;16.60;99.90;;;;;;4975725;28;20046;-77
2022/07/29 04:24:51;;;;;;;10.63;8.27;;;16.60;99.90;;;;;;4975460;28;20069;-77
2022/07/29 04:27:17;;;;;;;10.90;8.75;;;16.60;99.90;;;;;;4973971;28;20067;-77
2022/07/29 04:29:42;;;;;;;11.32;7.88;;;16.60;99.90;;;;;;4975994;28;20409;-80
2022/07/29 04:32:08;;;;;;;10.35;8.38;;;16.60;99.90;;;;;;4975392;28;20038;-76
2022/07/29 04:34:33;;;;;;;12.52;8.23;;;16.60;99.90;;;;;;4976202;28;20047;-76
2022/07/29 04:36:59;;;;;;;12.82;8.50;;;16.60;99.90;;;;;;4977078;28;20086;-76
2022/07/29 04:39:24;;;;;;;10.70;8.55;;;16.70;99.90;;;;;;4978626;28;20515;-76
2022/07/29 04:41:50;;;;;;;8.85;7.85;;;16.70;99.90;;;;;;4978904;28;20031;-76
2022/07/29 04:44:16;;;;;;;10.95;8.45;;;16.80;99.90;;;;;;4978506;28;20070;-76
2022/07/29 04:46:41;;;;;;;9.75;7.95;;;16.80;99.90;;;;;;4978584;28;20090;-76
2022/07/29 04:49:07;;;;;;;8.43;7.60;;;16.90;99.90;;;;;;4978883;28;20073;-73
2022/07/29 04:51:33;;;;;;;10.82;7.45;;;16.90;99.90;;;;;;4978689;28;20118;-73
2022/07/29 04:53:59;;;;;;;8.48;7.68;;;17.10;99.90;;;;;;4978474;28;20039;-74
2022/07/29 04:56:24;;;;;;;9.82;8.30;;;17.20;99.90;;;;;;4978865;28;20039;-76
2022/07/29 04:58:50;;;;;;;9.10;7.32;;;17.30;99.90;;;;;;4978688;28;20067;-76
2022/07/29 05:01:15;;;;;;;10.02;7.30;;;17.40;99.90;;;;;;4978597;28;20047;-76
2022/07/29 05:03:41;;;;;;;10.68;7.78;;;17.40;99.90;;;;;;4979038;28;20042;-76
2022/07/29 05:06:07;;;;;;;11.40;8.02;;;17.60;99.90;;;;;;4978453;28;20043;-76
2022/07/29 05:08:32;;;;;;;9.30;7.50;;;17.70;99.90;;;;;;4978219;28;20111;-76
2022/07/29 05:10:58;;;;;;;11.43;7.55;;;17.70;99.90;;;;;;4978199;28;20039;-76
2022/07/29 05:13:23;;;;;;;9.60;6.70;;;17.80;99.90;;;;;;4976775;28;20171;-76
2022/07/29 05:15:49;;;;;;;10.52;7.25;;;17.90;99.90;;;;;;4977073;28;20078;-76
2022/07/29 05:18:15;;;;;;;10.27;7.28;;;18.00;99.90;;;;;;4977947;28;20035;-76
2022/07/29 05:20:40;;;;;;;7.63;6.93;;;18.20;99.90;;;;;;4978384;28;20046;-76
2022/07/29 05:23:06;;;;;;;9.65;6.70;;;18.40;99.90;;;;;;4978281;28;20067;-76
2022/07/29 05:25:32;;;;;;;10.77;6.72;;;18.50;99.90;;;;;;4976174;28;20043;-76
2022/07/29 05:27:57;;;;;;;9.38;6.68;;;18.60;99.90;;;;;;4978418;28;20094;-76
2022/07/29 05:30:23;;;;;;;12.90;7.15;;;18.80;99.90;;;;;;4976575;28;20134;-76
2022/07/29 05:32:49;;;;;;;13.48;7.07;;;18.80;99.90;;;;;;4978238;28;20059;-76
2022/07/29 05:35:15;;;;;;;9.15;6.57;;;18.80;99.90;;;;;;4976199;28;20037;-76
2022/07/29 05:37:41;;;;;;;9.38;6.40;;;19.00;99.90;;;;;;4978201;28;20040;-76
2022/07/29 05:40:08;;;;;;;7.45;5.93;;;19.00;99.90;;;;;;4977984;28;20039;-76
2022/07/29 05:42:33;;;;;;;11.63;6.35;;;19.10;99.90;;;;;;4976203;28;20039;-76
2022/07/29 05:44:59;;;;;;;8.27;5.90;;;19.10;99.90;;;;;;4977107;28;20493;-76
2022/07/29 05:47:25;;;;;;;10.98;5.65;;;19.30;99.90;;;;;;4975181;28;20159;-76
2022/07/29 05:49:51;;;;;;;9.85;5.93;;;19.30;99.90;;;;;;4977885;28;20039;-76
2022/07/29 05:52:17;;;;;;;10.68;6.20;;;19.40;99.90;;;;;;4977799;28;20573;-76
2022/07/29 05:54:42;;;;;;;9.10;5.60;;;19.50;99.90;;;;;;4976950;28;20039;-76
2022/07/29 05:57:14;;;;;;;9.57;6.07;;;19.60;99.90;;;;;;4977583;28;20118;-76
2022/07/29 05:59:40;;;;;;;7.40;5.82;;;19.70;99.90;;;;;;4977223;28;20039;-76
2022/07/29 06:02:05;;;;;;;10.02;5.65;;;19.80;99.90;;;;;;4976284;28;20389;-76
2022/07/29 06:04:31;;;;;;;8.05;5.72;;;19.90;99.90;;;;;;4975808;28;20036;-75
2022/07/29 06:06:57;;;;;;;8.93;5.68;;;20.00;99.90;;;;;;4977414;28;20039;-76
2022/07/29 06:09:23;;;;;;;6.70;5.97;;;19.80;99.90;;;;;;4977194;28;20036;-75
2022/07/29 06:11:48;;;;;;;9.27;5.93;;;19.70;99.90;;;;;;4977774;28;20528;-75
2022/07/29 06:14:14;;;;;;;7.28;5.13;;;19.70;99.90;;;;;;4976854;28;20047;-75
2022/07/29 06:16:39;;;;;;;8.95;5.63;;;19.80;99.90;;;;;;4977105;28;20058;-75
2022/07/29 06:19:05;;;;;;;7.63;6.32;;;19.90;99.90;;;;;;4977790;28;20114;-74
2022/07/29 06:21:31;;;;;;;7.90;5.70;;;20.00;99.90;;;;;;4977346;28;20027;-74
2022/07/29 06:23:56;;;;;;;6.93;5.72;;;20.00;99.90;;;;;;4975642;28;20519;-74
2022/07/29 06:26:22;;;;;;;9.45;5.63;;;20.10;99.90;;;;;;4976992;28;20560;-74
2022/07/29 06:28:48;;;;;;;7.60;5.88;;;20.10;99.90;;;;;;4977259;28;20212;-74
2022/07/29 06:31:14;;;;;;;7.30;5.80;;;20.20;99.90;;;;;;4977223;28;20580;-74
2022/07/29 06:33:39;;;;;;;8.38;6.05;;;20.20;99.90;;;;;;4977169;28;20065;-74
2022/07/29 06:36:05;;;;;;;9.95;5.78;;;20.40;99.90;;;;;;4976934;28;20409;-74
2022/07/29 06:38:32;;;;;;;6.28;5.63;;;20.40;99.90;;;;;;4975366;28;20039;-73
2022/07/29 06:41:16;;;;;;;7.30;5.15;;;20.50;99.90;;;;;;4977139;28;20039;-73
2022/07/29 06:43:43;;;;;;;9.30;5.55;;;20.60;99.90;;;;;;4977102;28;20445;-73
2022/07/29 06:46:12;;;;;;;6.00;5.40;;;20.80;99.90;;;;;;4976209;28;20179;-73
2022/07/29 06:48:39;;;;;;;7.32;5.53;;;21.00;99.90;;;;;;4976764;28;20031;-73
2022/07/29 06:51:05;;;;;;;7.00;4.93;;;21.30;99.90;;;;;;4975830;28;20055;-73
2022/07/29 06:53:32;;;;;;;8.88;5.57;;;21.40;99.90;;;;;;4974773;28;20031;-73
2022/07/29 06:55:59;;;;;;;6.60;4.72;;;21.60;99.90;;;;;;4963243;28;20043;-73
2022/07/29 06:58:25;;;;;;;6.30;5.00;;;21.80;99.90;;;;;;4976232;28;20035;-73
2022/07/29 07:00:51;;;;;;;6.80;4.80;;;22.10;99.90;;;;;;4972170;28;20054;-74
2022/07/29 07:03:18;;;;;;;7.25;4.38;;;22.20;99.90;;;;;;4994742;28;20118;-73
2022/07/29 07:05:44;;;;;;;5.68;4.25;;;22.30;99.90;;;;;;4976959;28;20043;-73
2022/07/29 07:08:11;;;;;;;6.15;3.95;;;22.40;99.90;;;;;;4976184;28;20039;-74
2022/07/29 07:10:36;;;;;;;4.85;3.88;;;22.60;99.90;;;;;;4976894;28;20113;-74
2022/07/29 07:13:02;;;;;;;4.57;3.75;;;22.60;99.90;;;;;;4964800;28;20444;-74
2022/07/29 07:15:29;;;;;;;4.47;3.90;;;22.80;99.90;;;;;;4960760;28;20470;-74
2022/07/29 07:17:54;;;;;;;5.10;3.60;;;22.90;99.90;;;;;;4957308;28;20098;-73
2022/07/29 07:20:20;;;;;;;5.32;3.95;;;22.80;99.90;;;;;;4957532;28;20059;-74
2022/07/29 07:22:45;;;;;;;4.15;3.35;;;23.10;99.90;;;;;;4956790;28;20382;-74
2022/07/29 07:25:12;;;;;;;4.18;3.78;;;23.00;99.90;;;;;;4976322;28;20555;-74
2022/07/29 07:27:38;;;;;;;6.05;3.63;;;22.90;99.90;;;;;;4973945;28;20062;-74
2022/07/29 07:30:05;;;;;;;4.07;3.25;;;22.80;99.90;;;;;;4964205;28;20042;-74
2022/07/29 07:32:34;;;;;;;4.43;3.50;;;22.80;99.90;;;;;;4957151;28;20038;-74
2022/07/29 07:35:00;;;;;;;4.55;3.38;;;22.90;99.90;;;;;;4956752;28;20039;-74
2022/07/29 07:37:26;;;;;;;3.58;3.28;;;23.30;99.90;;;;;;4962606;28;20039;-74
2022/07/29 07:39:52;;;;;;;4.70;3.33;;;23.40;99.90;;;;;;4974807;28;20035;-74
2022/07/29 07:42:22;;;;;;;3.72;2.90;;;23.40;99.90;;;;;;4976781;28;20027;-73
2022/07/29 07:44:48;;;;;;;4.53;3.10;;;23.30;99.90;;;;;;4976113;28;20046;-73
2022/07/29 07:47:15;;;;;;;4.70;3.40;;;23.30;99.90;;;;;;4975902;28;20039;-74
2022/07/29 07:49:40;;;;;;;4.20;3.20;;;23.30;99.90;;;;;;4974671;28;20031;-75
2022/07/29 07:52:06;;;;;;;3.65;3.35;;;23.40;99.90;;;;;;4975959;28;20031;-74
2022/07/29 07:54:32;;;;;;;5.53;3.35;;;23.80;99.90;;;;;;4975950;28;20036;-74
2022/07/29 07:56:57;;;;;;;3.60;3.30;;;24.00;99.90;;;;;;4975574;28;20040;-77
2022/07/29 07:59:23;;;;;;;4.07;3.22;;;24.20;99.90;;;;;;4974489;28;20043;-75
2022/07/29 08:01:49;;;;;;;4.32;3.30;;;24.30;99.90;;;;;;4976015;28;20031;-75
2022/07/29 08:04:15;;;;;;;4.70;3.40;;;24.30;99.90;;;;;;4975178;28;20130;-72
2022/07/29 08:06:41;;;;;;;4.05;3.42;;;24.50;99.20;;;;;;4974715;28;20093;-74
2022/07/29 08:09:07;;;;;;;5.85;3.58;;;24.90;98.40;;;;;;4973659;28;20039;-75
2022/07/29 08:11:33;;;;;;;5.30;4.57;;;25.20;97.10;;;;;;4976053;28;20493;-75
2022/07/29 08:13:58;;;;;;;5.97;3.92;;;25.30;96.20;;;;;;4975475;28;20063;-75
2022/07/29 08:16:24;;;;;;;6.28;3.80;;;25.40;96.10;;;;;;4975167;28;20493;-76
2022/07/29 08:18:50;;;;;;;4.68;3.65;;;25.50;95.70;;;;;;4975788;28;20061;-74
2022/07/29 08:21:17;;;;;;;4.38;3.97;;;25.60;95.10;;;;;;4960494;28;20036;-73
2022/07/29 08:23:48;;;;;;;3.90;3.50;;;25.30;95.80;;;;;;4974161;28;20043;-73
2022/07/29 08:26:14;;;;;;;3.80;3.40;;;24.90;95.70;;;;;;4974970;28;20058;-73
2022/07/29 08:28:45;;;;;;;5.78;3.85;;;24.70;96.20;;;;;;4969027;28;20035;-73
2022/07/29 08:31:12;;;;;;;4.28;3.83;;;24.80;96.20;;;;;;4966808;28;20031;-73
2022/07/29 08:33:38;;;;;;;5.13;4.20;;;25.30;95.70;;;;;;4962098;28;20573;-73
2022/07/29 08:36:05;;;;;;;5.15;3.50;;;25.80;94.30;;;;;;4954532;28;20071;-73
2022/07/29 08:38:31;;;;;;;3.95;3.47;;;25.80;94.00;;;;;;4955775;28;20035;-73
2022/07/29 08:40:59;;;;;;;4.47;3.95;;;26.20;93.50;;;;;;4955926;28;20032;-73
2022/07/29 08:43:25;;;;;;;6.00;3.75;;;26.70;91.80;;;;;;4955549;28;20126;-73
2022/07/29 08:45:52;;;;;;;5.45;3.90;;;27.00;90.80;;;;;;4954429;28;20094;-73
2022/07/29 08:48:20;;;;;;;5.05;4.15;;;27.30;89.90;;;;;;4966422;28;20174;-75
2022/07/29 08:50:47;;;;;;;5.63;3.72;;;27.20;90.90;;;;;;4975147;28;20070;-74
2022/07/29 08:53:17;;;;;;;4.80;4.07;;;26.70;90.70;;;;;;4968245;28;20086;-74
2022/07/29 08:55:45;;;;;;;5.63;4.05;;;26.40;90.60;;;;;;4957533;28;20521;-74
2022/07/29 08:58:11;;;;;;;4.53;4.13;;;26.10;92.00;;;;;;4965096;28;20043;-74
2022/07/29 09:00:40;;;;;;;6.40;3.67;;;26.40;91.30;;;;;;4963883;28;20521;-76
2022/07/29 09:03:07;;;;;;;5.85;3.72;;;26.80;91.20;;;;;;4969283;28;20506;-74
2022/07/29 09:05:34;;;;;;;5.15;3.78;;;27.10;89.20;;;;;;4974487;28;20043;-75
2022/07/29 09:08:00;;;;;;;4.70;3.83;;;27.60;87.80;;;;;;4970331;28;20048;-75
2022/07/29 09:10:26;;;;;;;6.22;3.65;;;27.80;87.90;;;;;;4965493;28;20110;-74
2022/07/29 09:12:52;;;;;;;9.80;4.25;;;27.60;87.10;;;;;;4955871;28;20115;-74
2022/07/29 09:15:18;;;;;;;8.05;4.00;;;27.60;86.40;;;;;;4955584;28;20043;-74
2022/07/29 09:17:45;;;;;;;6.60;4.75;;;27.60;86.60;;;;;;4963144;28;20102;-74
2022/07/29 09:20:16;;;;;;;5.53;4.40;;;27.80;86.50;;;;;;4964051;28;20101;-75
2022/07/29 09:22:41;;;;;;;4.40;4.00;;;27.80;86.90;;;;;;4968912;28;20461;-74
2022/07/29 09:25:07;;;;;;;7.10;4.25;;;27.60;86.70;;;;;;4966705;28;20043;-75
2022/07/29 09:27:33;;;;;;;7.22;4.20;;;27.80;85.50;;;;;;4968494;28;20489;-75
2022/07/29 09:30:04;;;;;;;6.60;4.07;;;27.80;85.80;;;;;;4967019;28;20035;-75
2022/07/29 09:32:30;;;;;;;5.05;4.28;;;27.50;87.80;;;;;;4966767;28;20139;-75
2022/07/29 09:35:23;;;;;;;7.18;4.13;;;27.90;87.00;;;;;;4972442;28;20568;-74
2022/07/29 09:37:49;;;;;;;4.57;3.75;;;28.30;85.30;;;;;;4974227;28;20064;-74
2022/07/29 09:40:21;;;;;;;6.50;4.22;;;28.40;84.50;;;;;;4958505;28;20090;-74
2022/07/29 09:42:47;;;;;;;5.22;4.22;;;28.30;83.20;;;;;;4957339;28;20060;-78
2022/07/29 09:45:25;;;;;;;6.25;4.13;;;28.40;83.00;;;;;;4969742;28;20126;-77
2022/07/29 09:47:51;;;;;;;8.23;4.50;;;28.40;83.10;;;;;;4962185;28;20063;-74
2022/07/29 09:50:19;;;;;;;5.07;4.20;;;28.50;82.40;;;;;;4977929;28;20093;-74
2022/07/29 09:52:53;;;;;;;6.78;4.40;;;28.90;83.40;;;;;;4977744;28;20063;-74
2022/07/29 09:55:19;;;;;;;7.15;4.50;;;29.30;81.20;;;;;;4974038;28;20071;-74
2022/07/29 09:57:46;;;;;;;6.07;4.43;;;29.50;80.70;;;;;;4961034;28;20035;-74
2022/07/29 10:00:17;;;;;;;7.07;4.38;;;29.40;81.90;;;;;;4976749;28;20147;-74
2022/07/29 10:02:45;;;;;;;6.85;4.95;;;29.50;80.10;;;;;;4977853;28;20074;-73
2022/07/29 10:05:23;;;;;;;7.80;4.72;;;29.40;78.90;;;;;;4977700;28;20043;-73
2022/07/29 10:07:56;;;;;;;5.15;4.43;;;29.10;78.80;;;;;;4963899;28;20042;-74
2022/07/29 10:10:27;;;;;;;5.82;4.55;;;29.00;79.30;;;;;;4964833;28;20032;-76
2022/07/29 10:12:55;;;;;;;6.90;4.70;;;29.10;81.50;;;;;;4958815;28;20419;-75
2022/07/29 10:15:23;;;;;;;6.55;4.43;;;29.70;77.30;;;;;;4957464;28;20739;-75
2022/07/29 10:17:50;;;;;;;7.45;4.47;;;29.80;77.50;;;;;;4969398;28;20035;-74
2022/07/29 10:20:16;;;;;;;6.10;4.70;;;29.80;77.50;;;;;;4977360;28;20118;-75
2022/07/29 10:22:43;;;;;;;5.15;4.63;;;29.90;76.40;;;;;;4975991;28;20163;-75
2022/07/29 10:25:10;;;;;;;6.57;4.57;;;30.10;76.90;;;;;;4972670;28;20051;-74
2022/07/29 10:27:36;;;;;;;6.30;5.68;;;30.30;75.50;;;;;;4963881;28;20039;-80
2022/07/29 10:30:04;;;;;;;9.23;4.57;;;30.30;77.20;;;;;;4967187;28;20122;-75
2022/07/29 10:32:40;;;;;;;6.13;4.70;;;30.20;75.90;;;;;;4976290;28;20024;-75
2022/07/29 10:35:38;;;;;;;6.40;4.40;;;30.60;75.00;;;;;;4975438;28;20047;-76
2022/07/29 10:38:26;;;;;;;6.30;4.53;;;30.90;73.80;;;;;;4962232;28;20036;-74
2022/07/29 10:43:45;;;;;;;10.48;4.70;;;31.00;71.60;;;;;;4956349;28;20076;-76
2022/07/29 10:46:12;;;;;;;7.10;5.00;;;31.00;71.00;;;;;;4957162;28;20081;-80
2022/07/29 10:49:08;;;;;;;7.18;4.70;;;31.10;69.90;;;;;;4976966;28;20529;-77
2022/07/29 10:52:05;;;;;;;5.28;4.60;;;30.70;70.10;;;;;;4964845;28;20765;-77
2022/07/29 10:54:39;;;;;;;4.95;4.20;;;31.00;68.30;;;;;;4959866;28;20584;-77
2022/07/29 10:57:29;;;;;;;4.85;4.05;;;31.40;69.10;;;;;;4964998;28;20480;-77
2022/07/29 11:00:03;;;;;;;6.40;4.45;;;31.90;65.60;;;;;;4968803;28;20521;-76
2022/07/29 11:02:39;;;;;;;8.98;4.63;;;32.10;65.90;;;;;;4957238;28;20039;-76
2022/07/29 11:05:08;;;;;;;8.02;4.38;;;31.80;66.70;;;;;;4957408;28;20125;-82
2022/07/29 11:07:36;;;;;;;6.18;4.35;;;32.00;63.60;;;;;;4957053;28;20040;-81
2022/07/29 11:10:11;;;;;;;7.40;4.30;;;32.10;63.30;;;;;;4958221;28;20487;-74
2022/07/29 11:12:37;;;;;;;5.30;4.78;;;32.10;64.20;;;;;;4957261;28;20062;-73
2022/07/29 11:15:16;;;;;;;6.05;5.13;;;31.90;64.30;;;;;;4966618;28;20039;-73
2022/07/29 11:17:54;;;;;;;6.43;4.78;;;31.50;64.50;;;;;;4956198;28;20063;-74
2022/07/29 11:20:47;;;;;;;5.00;4.35;;;31.50;65.40;;;;;;4957136;28;20035;-73
2022/07/29 11:23:38;;;;;;;7.22;4.47;;;31.60;65.20;;;;;;4957075;28;20107;-74
2022/07/29 11:26:09;;;;;;;8.40;4.25;;;31.60;65.10;;;;;;4961609;28;20180;-74
2022/07/29 11:28:58;;;;;;;7.25;4.38;;;31.70;63.80;;;;;;4966932;28;20046;-73
2022/07/29 11:31:41;;;;;;;5.00;4.50;;;32.10;63.00;;;;;;4973389;28;20035;-74
2022/07/29 11:34:29;;;;;;;5.82;4.45;;;32.30;63.20;;;;;;4976296;28;20024;-73
2022/07/29 11:37:06;;;;;;;6.75;4.60;;;32.10;62.60;;;;;;4964130;28;20063;-73
2022/07/29 11:39:33;;;;;;;6.00;5.00;;;32.30;63.50;;;;;;4973792;28;20118;-73
2022/07/29 11:42:16;;;;;;;10.30;5.20;;;32.10;64.40;;;;;;4976153;28;20390;-74
2022/07/29 11:44:54;;;;;;;7.82;4.97;;;32.10;62.00;;;;;;4975805;28;20043;-74
2022/07/29 11:47:21;;;;;;;7.22;5.00;;;32.00;64.20;;;;;;4975407;28;20535;-74
2022/07/29 11:49:48;;;;;;;6.57;5.03;;;31.90;62.50;;;;;;4974830;28;20082;-74
2022/07/29 11:52:13;;;;;;;5.68;4.60;;;31.80;64.10;;;;;;4976028;28;20046;-74
2022/07/29 11:54:42;;;;;;;8.65;5.07;;;32.20;65.50;;;;;;4975754;28;20043;-74
2022/07/29 11:57:08;;;;;;;5.90;4.53;;;32.50;62.40;;;;;;4975408;28;20910;-74
2022/07/29 11:59:44;;;;;;;7.22;4.75;;;32.40;61.40;;;;;;4959205;28;20181;-74
2022/07/29 12:02:11;;;;;;;8.10;4.35;;;32.30;63.00;;;;;;4956465;28;20063;-74
2022/07/29 12:04:54;;;;;;;9.88;5.03;;;32.80;60.20;;;;;;4956296;28;20035;-75
2022/07/29 12:07:30;;;;;;;8.20;4.88;;;32.90;60.80;;;;;;4972339;28;20111;-74
2022/07/29 12:09:56;;;;;;;7.15;4.72;;;33.10;60.80;;;;;;4975431;28;20058;-74
2022/07/29 12:12:22;;;;;;;6.25;4.65;;;33.20;59.20;;;;;;4976061;28;20105;-74
2022/07/29 12:14:48;;;;;;;5.30;4.80;;;33.20;59.60;;;;;;4974106;28;20044;-74
2022/07/29 12:17:27;;;;;;;6.40;4.57;;;33.20;60.60;;;;;;4957581;28;20048;-74
2022/07/29 12:19:53;;;;;;;5.82;4.53;;;33.30;59.30;;;;;;4956512;28;20095;-74
2022/07/29 12:22:40;;;;;;;8.23;4.53;;;33.60;58.40;;;;;;4957041;28;20106;-74
2022/07/29 12:25:11;;;;;;;4.50;4.10;;;33.40;57.20;;;;;;4955829;28;20793;-74
2022/07/29 12:27:38;;;;;;;8.82;4.45;;;33.30;58.40;;;;;;4961974;28;20122;-74
2022/07/29 12:30:08;;;;;;;8.70;4.50;;;33.20;57.70;;;;;;4975383;28;20781;-75
2022/07/29 12:32:40;;;;;;;4.28;3.88;;;33.00;57.40;;;;;;4974233;28;20032;-74
2022/07/29 12:35:09;;;;;;;5.22;4.05;;;32.40;59.20;;;;;;4975006;28;20213;-74
2022/07/29 12:37:36;;;;;;;5.82;4.13;;;33.00;58.20;;;;;;4954620;28;20103;-73
2022/07/29 12:40:04;;;;;;;9.10;4.30;;;32.90;58.00;;;;;;4979327;23;20777;-77
2022/07/29 12:42:30;;;;;;;6.90;4.45;;;32.90;58.10;;;;;;4975477;28;20043;-77
2022/07/29 12:44:55;;;;;;;5.97;3.97;;;33.40;57.40;;;;;;4975051;28;20062;-77
2022/07/29 12:47:22;;;;;;;6.35;4.28;;;33.60;56.60;;;;;;4974049;28;20508;-77
2022/07/29 12:49:49;;;;;;;6.82;3.90;;;33.70;56.20;;;;;;4975309;28;20508;-77
2022/07/29 12:52:29;;;;;;;4.85;3.90;;;33.60;55.80;;;;;;4973973;28;20042;-77
2022/07/29 12:54:54;;;;;;;6.43;3.67;;;33.10;56.70;;;;;;4973841;28;20032;-77
2022/07/29 12:57:20;;;;;;;7.85;3.90;;;33.10;57.70;;;;;;4978994;28;20035;-78
2022/07/29 13:00:04;;;;;;;5.25;4.00;;;33.00;56.90;;;;;;4978477;28;20039;-77
2022/07/29 13:02:30;;;;;;;4.53;3.63;;;33.00;56.90;;;;;;4978854;28;20036;-77
2022/07/29 13:05:01;;;;;;;5.75;4.00;;;33.10;56.00;;;;;;4973525;28;20039;-77
2022/07/29 13:07:29;;;;;;;7.35;3.40;;;33.10;55.90;;;;;;5093751;23;20075;-76
2022/07/29 13:10:12;;;;;;;5.63;3.53;;;32.90;55.20;;;;;;4975297;28;20106;-75
2022/07/29 13:12:38;;;;;;;9.20;4.40;;;32.60;55.60;;;;;;4947910;28;20024;-75
2022/07/29 13:15:15;;;;;;;6.60;3.42;;;32.50;57.50;;;;;;4947326;28;20059;-74
2022/07/29 13:17:44;;;;;;;5.15;3.50;;;32.50;55.70;;;;;;4951752;28;20040;-75
2022/07/29 13:20:14;;;;;;;6.13;3.45;;;32.40;56.80;;;;;;4956584;23;20016;-79
2022/07/29 13:22:42;;;;;;;4.85;3.30;;;32.60;56.70;;;;;;4980915;28;20073;-78
2022/07/29 13:25:10;;;;;;;6.57;3.13;;;32.80;55.00;;;;;;4976414;28;20035;-76
2022/07/29 13:27:37;;;;;;;3.50;3.17;;;32.60;55.10;;;;;;4976998;28;20051;-76
2022/07/29 13:30:08;;;;;;;6.80;3.45;;;32.60;55.80;;;;;;4976396;28;20043;-75
2022/07/29 13:32:36;;;;;;;6.20;3.80;;;32.70;56.00;;;;;;4976624;28;20035;-76
2022/07/29 13:35:05;;;;;;;5.38;3.40;;;32.80;54.60;;;;;;4976230;28;20035;-77
2022/07/29 13:37:32;;;;;;;6.88;3.28;;;32.80;55.50;;;;;;4978017;28;20039;-77
2022/07/29 13:39:59;;;;;;;6.88;3.42;;;32.70;55.00;;;;;;4977142;28;20028;-76
2022/07/29 13:42:24;;;;;;;4.47;3.38;;;32.40;54.90;;;;;;4978817;28;20078;-75
2022/07/29 13:44:51;;;;;;;7.03;3.47;;;32.10;56.20;;;;;;4977723;28;20039;-74
2022/07/29 13:47:17;;;;;;;6.20;3.78;;;32.20;56.70;;;;;;4977767;28;20042;-75
2022/07/29 13:49:43;;;;;;;7.70;3.65;;;32.10;55.90;;;;;;4976873;28;20098;-74
2022/07/29 13:52:08;;;;;;;4.65;3.38;;;32.00;56.50;;;;;;4976051;28;20086;-75
2022/07/29 13:54:40;;;;;;;6.18;3.60;;;32.10;57.40;;;;;;4978026;28;20043;-79
2022/07/29 13:57:07;;;;;;;6.25;3.45;;;32.00;55.80;;;;;;4938545;28;20036;-77
2022/07/29 13:59:33;;;;;;;8.38;3.80;;;31.70;56.90;;;;;;4940097;28;20036;-76
2022/07/29 14:01:59;;;;;;;7.25;3.65;;;31.60;56.90;;;;;;4938741;28;20024;-75
2022/07/29 14:04:24;;;;;;;6.50;3.45;;;31.20;56.40;;;;;;4939998;28;20043;-77
2022/07/29 14:06:50;;;;;;;7.78;3.22;;;30.90;57.10;;;;;;4952738;28;20119;-78
2022/07/29 14:09:16;;;;;;;7.53;3.40;;;30.80;57.40;;;;;;4940150;28;20044;-75
2022/07/29 14:11:41;;;;;;;5.60;3.60;;;30.60;57.60;;;;;;4977420;28;20038;-74
2022/07/29 14:14:07;;;;;;;8.57;3.70;;;30.70;58.40;;;;;;4977586;28;20031;-76
2022/07/29 14:16:33;;;;;;;5.32;3.60;;;30.50;58.60;;;;;;4976183;28;20035;-73
2022/07/29 14:18:59;;;;;;;6.80;3.58;;;30.40;58.30;;;;;;4977322;28;20039;-76
2022/07/29 14:21:24;;;;;;;6.38;3.60;;;30.30;59.40;;;;;;4975290;28;20043;-73
2022/07/29 14:23:51;;;;;;;6.90;3.58;;;30.20;59.10;;;;;;4977542;28;20038;-73
2022/07/29 14:26:17;;;;;;;6.45;3.78;;;30.00;60.70;;;;;;4977091;28;20509;-72
2022/07/29 14:28:43;;;;;;;6.60;3.58;;;29.90;60.10;;;;;;4977057;28;20118;-76
2022/07/29 14:31:09;;;;;;;6.78;3.63;;;29.90;59.80;;;;;;4975427;28;20509;-73
2022/07/29 14:33:34;;;;;;;4.78;3.90;;;29.80;60.60;;;;;;4976636;28;20043;-75
2022/07/29 14:36:00;;;;;;;6.78;3.80;;;30.00;61.30;;;;;;4976843;28;20074;-74
2022/07/29 14:38:26;;;;;;;5.15;4.00;;;30.30;59.60;;;;;;4975712;28;20139;-73
2022/07/29 14:40:51;;;;;;;4.72;3.40;;;30.40;59.50;;;;;;4975353;28;20568;-75
2022/07/29 14:43:17;;;;;;;3.88;3.45;;;30.10;59.70;;;;;;4977073;28;20070;-76
2022/07/29 14:45:43;;;;;;;6.93;3.67;;;29.90;60.70;;;;;;4975105;28;20067;-74
2022/07/29 14:48:08;;;;;;;4.18;3.60;;;30.00;60.70;;;;;;4977129;28;20520;-75
2022/07/29 14:50:34;;;;;;;4.38;3.55;;;29.80;60.50;;;;;;4976578;28;20180;-76
2022/07/29 14:53:00;;;;;;;7.32;3.70;;;30.00;61.10;;;;;;4976642;28;20039;-76
2022/07/29 14:55:26;;;;;;;5.25;3.75;;;30.10;61.10;;;;;;4975199;28;20035;-75
2022/07/29 14:57:51;;;;;;;9.43;3.65;;;29.80;60.30;;;;;;4976889;28;20031;-76
2022/07/29 15:00:17;;;;;;;5.55;3.65;;;29.80;60.80;;;;;;4976236;28;20036;-76
2022/07/29 15:02:43;;;;;;;7.47;3.72;;;29.70;61.20;;;;;;4976598;28;20464;-75
2022/07/29 15:05:09;;;;;;;6.63;3.90;;;29.70;61.10;;;;;;4976302;28;20364;-77
2022/07/29 15:07:34;;;;;;;5.88;3.90;;;29.60;60.50;;;;;;4976419;28;20031;-73
2022/07/29 15:10:00;;;;;;;3.67;3.33;;;29.60;60.70;;;;;;4975944;28;20037;-73
2022/07/29 15:12:25;;;;;;;4.50;3.42;;;29.50;60.60;;;;;;4975034;28;20489;-74
2022/07/29 15:14:51;;;;;;;7.30;3.75;;;29.50;60.80;;;;;;4975853;28;20575;-75
2022/07/29 15:17:16;;;;;;;5.93;4.07;;;29.40;60.80;;;;;;4976499;28;20039;-73
2022/07/29 15:19:42;;;;;;;3.88;3.40;;;29.50;61.10;;;;;;4975955;28;20046;-74
2022/07/29 15:22:07;;;;;;;8.88;3.55;;;29.40;61.60;;;;;;4976062;28;20501;-72
2022/07/29 15:24:33;;;;;;;4.10;3.20;;;29.40;59.80;;;;;;4976205;28;20138;-77
2022/07/29 15:26:58;;;;;;;5.47;2.97;;;29.40;59.40;;;;;;4976520;28;20074;-74
2022/07/29 15:29:24;;;;;;;5.90;2.97;;;29.60;60.30;;;;;;4976418;28;20058;-76
2022/07/29 15:31:50;;;;;;;6.15;3.38;;;29.50;60.70;;;;;;4976206;28;20359;-74
2022/07/29 15:34:15;;;;;;;5.10;3.13;;;29.40;60.00;;;;;;4976281;28;20037;-75
2022/07/29 15:36:41;;;;;;;4.32;3.28;;;29.30;60.40;;;;;;4976260;28;20037;-73
2022/07/29 15:39:06;;;;;;;3.58;3.28;;;29.30;59.60;;;;;;4975698;28;20035;-74
2022/07/29 15:41:33;;;;;;;5.93;3.30;;;29.30;61.30;;;;;;4974538;28;20027;-73
2022/07/29 15:43:59;;;;;;;5.03;3.10;;;29.30;59.90;;;;;;4975949;28;20505;-74
2022/07/29 15:49:08;;;;;;;5.97;2.45;;;29.60;59.50;;;;;;4976312;28;20169;-75
2022/07/29 15:51:34;;;;;;;3.90;2.70;;;29.60;59.70;;;;;;4975460;28;20117;-76
2022/07/29 15:54:03;;;;;;;7.15;2.92;;;29.60;60.20;;;;;;4975975;28;20121;-75
2022/07/29 15:56:30;;;;;;;3.65;2.65;;;29.60;59.70;;;;;;4975541;28;20050;-75
2022/07/29 15:58:55;;;;;;;2.60;2.40;;;29.50;59.40;;;;;;4975933;28;20540;-73
2022/07/29 16:01:21;;;;;;;3.25;2.40;;;29.40;58.60;;;;;;4975800;28;20035;-74
2022/07/29 16:03:46;;;;;;;5.40;2.65;;;29.30;58.60;;;;;;4976128;28;20039;-71
2022/07/29 16:06:12;;;;;;;5.53;2.42;;;29.20;58.80;;;;;;4975686;28;20130;-71
2022/07/29 16:08:38;;;;;;;3.30;2.30;;;29.30;59.00;;;;;;4975888;28;20090;-72
2022/07/29 16:11:03;;;;;;;4.72;2.40;;;29.50;59.00;;;;;;4975401;28;20062;-78
2022/07/29 16:13:29;;;;;;;5.43;2.15;;;29.90;56.70;;;;;;4975867;28;20047;-74
2022/07/29 16:15:54;;;;;;;4.25;2.20;;;30.10;56.20;;;;;;4975682;28;20086;-76
2022/07/29 16:18:20;;;;;;;4.75;2.50;;;30.80;55.60;;;;;;4975756;28;20035;-75
2022/07/29 16:20:46;;;;;;;7.90;2.13;;;31.30;54.70;;;;;;4975121;28;20039;-76
2022/07/29 16:23:11;;;;;;;4.38;2.35;;;31.60;54.40;;;;;;4975604;28;20477;-72
2022/07/29 16:25:41;;;;;;;4.93;1.95;;;31.50;53.40;;;;;;4973804;28;20081;-78
2022/07/29 16:28:07;;;;;;;4.45;1.85;;;31.20;52.60;;;;;;4975689;28;20101;-77
2022/07/29 16:30:36;;;;;;;4.82;1.98;;;30.90;53.10;;;;;;4974754;28;20485;-74
2022/07/29 16:33:02;;;;;;;3.28;1.70;;;30.80;52.70;;;;;;4975247;28;20037;-75
2022/07/29 16:35:29;;;;;;;6.50;2.40;;;30.60;53.70;;;;;;4975340;28;20031;-74
2022/07/29 16:37:55;;;;;;;3.40;1.83;;;30.30;53.80;;;;;;4975274;28;20485;-76
2022/07/29 16:40:21;;;;;;;2.70;2.10;;;30.30;54.70;;;;;;4974738;28;20070;-75
2022/07/29 16:42:46;;;;;;;5.22;2.08;;;30.10;54.90;;;;;;4973876;28;20466;-77
2022/07/29 16:45:12;;;;;;;3.33;1.85;;;30.00;54.50;;;;;;4975188;28;20568;-76
2022/07/29 16:47:38;;;;;;;6.38;2.00;;;29.80;54.30;;;;;;4975299;28;20058;-76
2022/07/29 16:50:04;;;;;;;8.95;2.20;;;29.90;54.10;;;;;;4974904;28;20082;-74
2022/07/29 16:52:29;;;;;;;3.42;1.73;;;29.80;53.40;;;;;;4973756;28;20089;-76
2022/07/29 16:54:54;;;;;;;3.63;1.92;;;29.80;53.60;;;;;;4973838;28;20387;-75